Accueil
METAR-TAF:

METAR-TAF

Aéroports :

Aéroport international de Curaçao

Curaçao, Antilles néerlandaises

latitude: 12-12N, longitude: 068-58W, altitude: 9 m

Observation

Le bulletin a été fait il y a 28 minutes, à 14:00 UTC
Vent 15 kt de est/sud-est
Température 31°C
Humidité 66%
Pression 1014 hPa
Visibilité 10 km ou plus
Nuages épars à une hauteur de 2200 ft

METAR: TNCC 191400Z 12015KT 9999 SCT022 31/24 Q1014 NOSIG

Heure: 10:28 (14:28 UTC)

Prévision

Le bulletin a été fait il y a 4 heures et 28 minutes, à 10:00 UTC
Prévision valable du 19 à 12 UTC au 20 à 12 UTC
Vent 16 kt de est/sud-est
Visibilité 10 km ou plus
Quelques nuages à une hauteur de 2000 ft

TAF: TNCC 191000Z 1912/2012 11016KT 9999 FEW020

Observations et prévisions météorologiques de plus de 4000 aéroports (messages METAR et TAF).

Les stations disponibles sont représentées par des disques jaunes et rouges sur la carte.

Passer la souris dessus pour voir le nom de la station.

Cliquer dessus pour voir les observations et prévisions météorologiques.

Pour changer de carte: cliquez sur les boutons verts avec une croix noire pour zoomer, sur le bouton vert avec un tiret pour effectuer un zoom arrière, ou sur les flèches vertes pour les cartes adjacentes.


METAR-TAF: